Time;durP1;ratioP1;P1;durP2;ratioP2;P2;SDS_P1;SDS_P2;PMS_P1;PMS_P2;Temp;Humidity;BMP_temperature;BMP_pressure;BME280_temperature;BME280_humidity;BME280_pressure;Samples;Min_cycle;Max_cycle;Signal;HPM_P1;HPM_P2
2023/11/13 00:02:13;;;;;;;;;;;17.70;68.30;;;;;;5082603;28;20032;-34
2023/11/13 00:04:39;;;;;;;1.17;0.93;;;17.70;68.30;;;;;;5081839;28;20576;-34
2023/11/13 00:07:06;;;;;;;1.20;0.90;;;17.60;68.30;;;;;;5076270;28;20029;-34
2023/11/13 00:09:32;;;;;;;2.13;0.90;;;17.60;68.20;;;;;;5082489;28;20080;-34
2023/11/13 00:11:58;;;;;;;1.77;0.80;;;17.60;68.20;;;;;;5083204;28;20028;-34
2023/11/13 00:14:24;;;;;;;1.50;0.85;;;17.60;68.20;;;;;;5082097;28;20035;-34
2023/11/13 00:16:51;;;;;;;0.75;0.75;;;17.60;68.20;;;;;;5089594;28;20021;-34
2023/11/13 00:19:17;;;;;;;1.10;0.88;;;17.60;68.30;;;;;;5082012;28;20035;-34
2023/11/13 00:21:43;;;;;;;1.87;1.20;;;17.60;68.20;;;;;;5081403;28;20424;-34
2023/11/13 00:24:12;;;;;;;1.10;1.00;;;17.60;68.30;;;;;;5085568;28;20036;-34
2023/11/13 00:26:38;;;;;;;1.20;0.85;;;17.60;68.30;;;;;;5082338;28;20107;-34
2023/11/13 00:29:05;;;;;;;1.33;1.10;;;17.60;68.30;;;;;;5085985;28;20032;-34
2023/11/13 00:31:32;;;;;;;1.25;0.80;;;17.60;68.40;;;;;;5086423;28;20385;-34
2023/11/13 00:33:58;;;;;;;0.82;0.65;;;17.60;69.40;;;;;;5086057;28;20107;-34
2023/11/13 00:36:24;;;;;;;1.02;0.85;;;17.70;68.80;;;;;;5084368;28;20043;-35
2023/11/13 00:38:50;;;;;;;0.95;0.80;;;17.70;68.60;;;;;;5081850;28;20105;-35
2023/11/13 00:41:16;;;;;;;1.60;1.00;;;17.70;68.50;;;;;;5078032;28;20028;-35
2023/11/13 00:43:44;;;;;;;1.40;0.90;;;17.70;68.50;;;;;;5074081;28;20045;-34
2023/11/13 00:46:10;;;;;;;1.02;0.70;;;17.70;68.50;;;;;;5089793;28;20045;-35
2023/11/13 00:48:40;;;;;;;2.08;0.88;;;17.60;68.40;;;;;;5086472;28;20028;-35
2023/11/13 00:51:08;;;;;;;1.10;0.85;;;17.60;68.50;;;;;;5081014;28;20117;-35
2023/11/13 00:53:36;;;;;;;1.05;0.93;;;17.60;68.50;;;;;;5077305;28;20028;-37
2023/11/13 00:56:07;;;;;;;0.82;0.70;;;17.60;68.50;;;;;;5086339;28;20041;-35
2023/11/13 00:58:34;;;;;;;1.00;0.90;;;17.60;68.50;;;;;;5083141;28;20067;-34
2023/11/13 01:01:01;;;;;;;;;;;17.60;68.40;;;;;;5086486;28;20041;-35
2023/11/13 01:03:28;;;;;;;1.02;0.90;;;17.60;68.40;;;;;;5085115;28;20400;-34
2023/11/13 01:05:54;;;;;;;;;;;17.60;68.50;;;;;;5085974;28;20071;-34
2023/11/13 01:08:21;;;;;;;1.13;0.98;;;17.60;68.50;;;;;;5083634;28;19984;-34
2023/11/13 01:10:47;;;;;;;1.30;0.95;;;17.60;68.50;;;;;;5085964;28;20028;-34
2023/11/13 01:13:13;;;;;;;1.42;1.08;;;17.60;68.40;;;;;;5087406;28;20033;-34
2023/11/13 01:15:41;;;;;;;1.23;0.93;;;17.50;68.40;;;;;;5089856;28;20052;-34
2023/11/13 01:18:07;;;;;;;;;;;17.50;68.40;;;;;;5087951;28;20103;-34
2023/11/13 01:20:34;;;;;;;1.23;1.00;;;17.50;68.40;;;;;;5085401;28;19912;-34
2023/11/13 01:23:00;;;;;;;2.45;0.90;;;17.50;68.40;;;;;;5085342;28;20115;-34
2023/11/13 01:25:27;;;;;;;1.05;0.75;;;17.50;68.60;;;;;;5085013;28;20033;-34
2023/11/13 01:27:53;;;;;;;1.83;0.80;;;17.60;69.00;;;;;;5085160;28;20060;-35
2023/11/13 01:30:20;;;;;;;1.90;0.88;;;17.60;69.00;;;;;;5084396;28;20051;-35
2023/11/13 01:32:47;;;;;;;0.93;0.77;;;17.60;68.80;;;;;;5084578;28;20085;-34
2023/11/13 01:35:18;;;;;;;1.15;1.00;;;17.60;68.70;;;;;;5084759;28;20029;-34
2023/11/13 01:37:50;;;;;;;1.02;0.93;;;17.60;68.70;;;;;;5084962;28;20165;-34
2023/11/13 01:40:17;;;;;;;0.85;0.77;;;17.60;68.80;;;;;;5084173;28;20044;-34
2023/11/13 01:42:44;;;;;;;2.03;0.95;;;17.60;68.70;;;;;;5085007;28;20040;-35
2023/11/13 01:45:12;;;;;;;1.10;1.00;;;17.60;68.80;;;;;;5085210;28;20119;-35
2023/11/13 01:47:39;;;;;;;0.95;0.85;;;17.60;68.80;;;;;;5078427;28;20790;-35
2023/11/13 01:50:08;;;;;;;1.27;0.90;;;17.60;68.80;;;;;;5083585;28;20041;-35
2023/11/13 01:52:41;;;;;;;1.50;0.88;;;17.60;68.80;;;;;;5078590;28;20020;-35
2023/11/13 01:55:09;;;;;;;;;;;17.50;68.70;;;;;;5082645;28;20020;-35
2023/11/13 01:57:36;;;;;;;1.27;0.93;;;17.60;68.80;;;;;;5068470;28;19976;-34
2023/11/13 02:00:05;;;;;;;1.88;1.17;;;17.50;68.80;;;;;;5083978;28;20063;-33
2023/11/13 02:02:32;;;;;;;1.30;1.00;;;17.50;68.70;;;;;;5084198;28;20032;-33
2023/11/13 02:04:58;;;;;;;1.60;0.90;;;17.50;68.80;;;;;;5074690;28;20060;-33
2023/11/13 02:07:26;;;;;;;2.42;0.82;;;17.50;68.80;;;;;;5083606;28;20048;-34
2023/11/13 02:09:52;;;;;;;;;;;17.50;68.70;;;;;;5084401;28;20094;-35
2023/11/13 02:12:19;;;;;;;2.15;0.95;;;17.50;68.70;;;;;;5087450;28;19919;-34
2023/11/13 02:14:45;;;;;;;1.52;1.00;;;17.50;68.70;;;;;;5090548;28;20028;-34
2023/11/13 02:17:12;;;;;;;2.35;1.00;;;17.50;68.70;;;;;;5090795;28;20028;-34
2023/11/13 02:19:38;;;;;;;1.13;1.02;;;17.50;68.70;;;;;;5084740;28;20032;-34
2023/11/13 02:22:05;;;;;;;2.90;1.27;;;17.40;68.60;;;;;;5084256;28;20028;-34
2023/11/13 02:24:32;;;;;;;1.20;0.90;;;17.50;68.90;;;;;;5083856;28;20078;-34
2023/11/13 02:26:58;;;;;;;1.87;0.90;;;17.60;69.20;;;;;;5083174;28;20027;-34
2023/11/13 02:29:24;;;;;;;1.00;0.90;;;17.60;69.20;;;;;;5074868;28;20281;-35
2023/11/13 02:31:54;;;;;;;1.65;1.00;;;17.60;69.10;;;;;;5084290;28;20021;-34
2023/11/13 02:34:21;;;;;;;3.15;1.05;;;17.60;69.00;;;;;;5082970;28;20092;-34
2023/11/13 02:36:52;;;;;;;1.53;1.07;;;17.60;69.10;;;;;;5079684;28;20021;-34
2023/11/13 02:39:19;;;;;;;1.15;0.90;;;17.60;69.10;;;;;;5066438;28;20294;-34
2023/11/13 02:41:45;;;;;;;;;;;17.60;69.10;;;;;;5084295;28;20058;-34
2023/11/13 02:44:12;;;;;;;3.80;1.00;;;17.60;69.10;;;;;;5087237;28;19962;-34
2023/11/13 02:46:38;;;;;;;0.95;0.80;;;17.50;69.00;;;;;;5090109;28;20016;-34
2023/11/13 02:49:04;;;;;;;1.25;1.00;;;17.50;69.00;;;;;;5081875;28;20527;-35
2023/11/13 02:51:30;;;;;;;1.50;0.88;;;17.50;69.00;;;;;;5079660;28;20042;-34
2023/11/13 02:53:56;;;;;;;1.42;0.90;;;17.50;69.00;;;;;;5082119;28;20047;-34
2023/11/13 02:56:22;;;;;;;0.80;0.77;;;17.50;69.00;;;;;;5081893;28;20043;-34
2023/11/13 02:58:49;;;;;;;1.42;1.00;;;17.50;69.00;;;;;;5080986;28;20028;-34
2023/11/13 03:01:16;;;;;;;2.03;1.00;;;17.50;69.00;;;;;;5082647;28;20036;-34
2023/11/13 03:03:45;;;;;;;1.55;1.05;;;17.50;69.00;;;;;;5084155;28;20303;-35
2023/11/13 03:06:12;;;;;;;2.13;1.20;;;17.50;69.00;;;;;;5083167;28;20039;-34
2023/11/13 03:08:38;;;;;;;1.25;1.10;;;17.50;69.00;;;;;;5082392;28;20039;-34
2023/11/13 03:11:04;;;;;;;1.25;1.10;;;17.40;68.90;;;;;;5083240;28;20055;-35
2023/11/13 03:13:31;;;;;;;2.10;1.08;;;17.40;68.90;;;;;;5079236;28;20082;-34
2023/11/13 03:15:57;;;;;;;1.40;1.10;;;17.40;68.90;;;;;;5081978;28;20088;-34
2023/11/13 03:18:23;;;;;;;1.45;0.90;;;17.50;69.20;;;;;;5079933;28;20033;-34
2023/11/13 03:20:49;;;;;;;1.10;1.00;;;17.50;69.60;;;;;;5082526;28;20020;-34
2023/11/13 03:23:15;;;;;;;0.90;0.90;;;17.60;69.50;;;;;;5081391;28;20510;-34
2023/11/13 03:25:42;;;;;;;1.00;0.90;;;17.60;69.40;;;;;;5083672;28;20037;-35
2023/11/13 03:28:08;;;;;;;1.75;1.00;;;17.60;69.30;;;;;;5082065;28;20039;-34
2023/11/13 03:30:38;;;;;;;1.35;1.10;;;17.60;69.30;;;;;;5075516;28;20083;-34
2023/11/13 03:33:04;;;;;;;1.80;1.10;;;17.60;69.30;;;;;;5082966;28;20119;-34
2023/11/13 03:35:30;;;;;;;2.15;1.10;;;17.60;69.30;;;;;;5074935;28;20052;-34
2023/11/13 03:37:57;;;;;;;1.23;0.88;;;17.60;69.30;;;;;;5082591;28;20028;-34
2023/11/13 03:40:26;;;;;;;2.05;1.17;;;17.50;69.20;;;;;;5081949;28;20058;-34
2023/11/13 03:42:52;;;;;;;1.83;1.17;;;17.50;69.30;;;;;;5082294;28;20059;-34
2023/11/13 03:45:19;;;;;;;1.38;1.15;;;17.50;69.30;;;;;;5082665;28;20043;-34
2023/11/13 03:47:45;;;;;;;1.10;1.00;;;17.50;69.30;;;;;;5088069;28;20028;-34
2023/11/13 03:50:12;;;;;;;2.63;1.10;;;17.50;69.20;;;;;;5081600;28;20070;-34
2023/11/13 03:52:38;;;;;;;1.55;1.05;;;17.50;69.20;;;;;;5074849;28;20122;-34
2023/11/13 03:55:04;;;;;;;1.00;0.90;;;17.50;69.90;;;;;;5079958;28;20033;-34
2023/11/13 03:57:30;;;;;;;1.77;0.88;;;17.50;69.20;;;;;;5078105;28;20070;-34
2023/11/13 03:59:56;;;;;;;0.93;0.85;;;17.50;69.50;;;;;;5078261;28;20141;-34
2023/11/13 04:02:22;;;;;;;3.55;1.10;;;17.50;69.20;;;;;;5083461;28;20029;-34
2023/11/13 04:04:49;;;;;;;1.45;1.00;;;17.50;69.20;;;;;;5079302;28;20093;-34
2023/11/13 04:07:20;;;;;;;1.13;1.00;;;17.50;69.20;;;;;;5079881;28;20029;-34
2023/11/13 04:09:46;;;;;;;1.88;0.82;;;17.40;69.20;;;;;;5078310;28;21997;-35
2023/11/13 04:12:12;;;;;;;1.15;1.05;;;17.40;69.20;;;;;;5079586;28;20020;-36
2023/11/13 04:14:38;;;;;;;1.77;1.20;;;17.40;69.20;;;;;;5084007;28;20073;-34
2023/11/13 04:17:06;;;;;;;1.92;1.20;;;17.50;69.50;;;;;;5084721;28;20095;-34
2023/11/13 04:19:33;;;;;;;1.20;1.10;;;17.50;69.80;;;;;;5080177;28;20036;-34
2023/11/13 04:21:59;;;;;;;1.58;1.25;;;17.60;69.70;;;;;;5082029;28;20496;-34
2023/11/13 04:24:25;;;;;;;0.88;0.82;;;17.60;69.50;;;;;;5081373;28;20102;-34
2023/11/13 04:26:52;;;;;;;1.27;1.15;;;17.60;69.50;;;;;;5082574;28;20029;-34
2023/11/13 04:29:18;;;;;;;1.30;1.00;;;17.60;69.50;;;;;;5082109;28;20113;-34
2023/11/13 04:31:45;;;;;;;1.20;0.80;;;17.60;69.60;;;;;;5082673;28;20036;-34
2023/11/13 04:34:11;;;;;;;1.17;1.00;;;17.60;69.50;;;;;;5082370;28;20162;-34
2023/11/13 04:36:41;;;;;;;1.58;1.33;;;17.50;69.50;;;;;;5081750;28;20059;-34
2023/11/13 04:39:09;;;;;;;1.25;0.95;;;17.50;69.50;;;;;;5081599;28;20031;-34
2023/11/13 04:41:39;;;;;;;1.88;1.20;;;17.50;69.50;;;;;;5070953;28;20052;-33
2023/11/13 04:44:25;;;;;;;1.33;0.93;;;17.50;69.40;;;;;;5078309;28;20067;-34
2023/11/13 04:46:51;;;;;;;1.55;1.10;;;17.50;69.50;;;;;;5047503;28;20063;-34
2023/11/13 04:49:17;;;;;;;1.27;0.95;;;17.50;69.40;;;;;;5039938;28;20049;-34
2023/11/13 04:51:44;;;;;;;2.65;1.20;;;17.50;69.50;;;;;;5040325;28;20034;-34
2023/11/13 04:54:10;;;;;;;1.13;1.00;;;17.50;69.40;;;;;;5039911;28;20026;-34
2023/11/13 04:56:36;;;;;;;2.83;1.20;;;17.50;69.50;;;;;;5040727;28;20025;-34
2023/11/13 04:59:02;;;;;;;1.40;1.20;;;17.50;69.40;;;;;;5040281;28;20042;-33
2023/11/13 05:01:28;;;;;;;1.25;0.90;;;17.50;69.40;;;;;;5039970;28;20048;-33
2023/11/13 05:03:54;;;;;;;1.08;0.98;;;17.40;69.30;;;;;;5040222;28;20053;-34
2023/11/13 05:06:22;;;;;;;1.60;1.13;;;17.40;69.30;;;;;;5039757;28;20026;-34
2023/11/13 05:08:48;;;;;;;1.15;1.05;;;17.40;69.30;;;;;;5059456;28;20025;-34
2023/11/13 05:11:22;;;;;;;2.40;0.98;;;17.40;69.30;;;;;;5043388;28;20042;-34
2023/11/13 05:13:48;;;;;;;1.65;1.10;;;17.40;69.30;;;;;;5043760;28;20033;-35
2023/11/13 05:16:21;;;;;;;1.17;0.90;;;17.40;69.30;;;;;;5050550;28;20056;-34
2023/11/13 05:18:47;;;;;;;1.52;1.00;;;17.50;69.80;;;;;;5043587;28;20049;-33
2023/11/13 05:21:16;;;;;;;1.57;1.00;;;17.60;70.00;;;;;;5058981;28;20438;-33
2023/11/13 05:23:42;;;;;;;1.98;1.27;;;17.60;69.80;;;;;;5054575;28;20045;-34
2023/11/13 05:26:08;;;;;;;1.98;1.00;;;17.60;69.70;;;;;;5070121;28;20040;-34
2023/11/13 05:28:34;;;;;;;1.75;1.20;;;17.60;69.70;;;;;;5078528;28;20081;-34
2023/11/13 05:31:04;;;;;;;1.42;1.20;;;17.60;69.70;;;;;;5078291;28;20052;-34
2023/11/13 05:33:30;;;;;;;1.55;0.98;;;17.50;69.70;;;;;;5082510;28;20085;-34
2023/11/13 05:35:56;;;;;;;1.40;0.93;;;17.50;69.60;;;;;;5085521;28;20043;-34
2023/11/13 05:38:22;;;;;;;1.20;1.10;;;17.50;69.60;;;;;;5078380;28;20036;-34
2023/11/13 05:40:49;;;;;;;1.42;0.95;;;17.50;69.60;;;;;;5084905;28;20092;-33
2023/11/13 05:43:15;;;;;;;1.17;1.00;;;17.50;69.60;;;;;;5084464;28;20064;-34
2023/11/13 05:45:41;;;;;;;1.65;0.80;;;17.50;69.60;;;;;;5089598;28;20048;-34
2023/11/13 05:48:07;;;;;;;2.00;1.10;;;17.50;69.70;;;;;;5091723;28;20416;-34
2023/11/13 05:50:33;;;;;;;1.88;1.30;;;17.50;69.70;;;;;;5082982;28;20035;-34
2023/11/13 05:53:00;;;;;;;1.55;1.10;;;17.40;69.50;;;;;;5084800;28;20050;-34
2023/11/13 05:55:26;;;;;;;1.40;1.30;;;17.40;69.50;;;;;;5076849;28;20174;-34
2023/11/13 05:57:52;;;;;;;1.90;1.13;;;17.40;69.60;;;;;;5085065;28;20021;-34
2023/11/13 06:00:20;;;;;;;1.23;1.08;;;17.40;69.50;;;;;;5082990;28;20049;-34
2023/11/13 06:02:46;;;;;;;1.70;1.10;;;17.40;69.50;;;;;;5084929;28;20033;-34
2023/11/13 06:05:13;;;;;;;2.92;1.20;;;17.40;69.60;;;;;;5081778;28;20036;-34
2023/11/13 06:07:39;;;;;;;1.63;1.20;;;17.40;69.50;;;;;;5081491;28;20029;-34
2023/11/13 06:10:07;;;;;;;1.60;1.30;;;17.40;69.50;;;;;;5092116;28;20051;-34
2023/11/13 06:12:33;;;;;;;1.50;1.10;;;17.40;69.80;;;;;;5076405;28;20032;-34
2023/11/13 06:15:01;;;;;;;1.13;1.02;;;17.50;70.00;;;;;;5084644;28;20032;-34
2023/11/13 06:17:27;;;;;;;1.17;1.08;;;17.60;70.00;;;;;;5091277;28;20039;-34
2023/11/13 06:19:53;;;;;;;1.73;0.93;;;17.60;70.00;;;;;;5084009;28;20031;-34
2023/11/13 06:22:22;;;;;;;0.60;0.60;;;17.50;69.80;;;;;;5083804;28;20028;-33
2023/11/13 06:24:49;;;;;;;1.60;1.05;;;17.50;69.70;;;;;;5084667;28;20056;-33
2023/11/13 06:27:15;;;;;;;2.78;1.10;;;17.50;69.80;;;;;;5084042;28;20788;-33
2023/11/13 06:29:41;;;;;;;1.98;1.00;;;17.50;69.80;;;;;;5076397;28;20039;-33
2023/11/13 06:32:07;;;;;;;1.50;1.05;;;17.50;69.80;;;;;;5083118;28;20078;-33
2023/11/13 06:34:34;;;;;;;1.30;1.20;;;17.50;69.70;;;;;;5083914;28;20035;-34
2023/11/13 06:37:00;;;;;;;1.77;1.30;;;17.50;69.70;;;;;;5084013;28;20281;-34
2023/11/13 06:39:26;;;;;;;2.00;1.13;;;17.40;69.70;;;;;;5083680;28;20051;-34
2023/11/13 06:41:52;;;;;;;2.13;1.20;;;17.40;69.70;;;;;;5083720;28;20489;-34
2023/11/13 06:44:19;;;;;;;1.50;1.20;;;17.40;69.70;;;;;;5083306;28;20064;-34
2023/11/13 06:46:46;;;;;;;3.13;1.17;;;17.40;69.70;;;;;;5091171;28;20033;-34
2023/11/13 06:49:13;;;;;;;2.20;1.20;;;17.40;69.70;;;;;;5083403;28;20063;-34
2023/11/13 06:51:39;;;;;;;1.38;1.00;;;17.40;70.40;;;;;;5083895;28;20076;-34
2023/11/13 06:54:07;;;;;;;1.20;1.10;;;17.40;69.60;;;;;;5083875;28;20051;-34
2023/11/13 06:56:34;;;;;;;1.23;1.13;;;17.40;69.60;;;;;;5083500;28;20029;-34
2023/11/13 06:59:00;;;;;;;1.38;1.25;;;17.40;69.90;;;;;;5083775;28;20036;-34
2023/11/13 07:01:26;;;;;;;1.23;1.00;;;17.50;70.00;;;;;;5074853;28;20036;-34
2023/11/13 07:03:53;;;;;;;1.50;1.40;;;17.60;69.80;;;;;;5083045;28;20028;-35
2023/11/13 07:06:19;;;;;;;3.53;1.52;;;17.60;69.70;;;;;;5082812;28;20025;-34
2023/11/13 07:08:45;;;;;;;1.05;0.95;;;17.50;69.60;;;;;;5078040;28;20039;-34
2023/11/13 07:11:14;;;;;;;1.10;1.00;;;17.50;69.70;;;;;;5082764;28;20036;-35
2023/11/13 07:13:41;;;;;;;1.40;1.10;;;17.50;69.70;;;;;;5083088;28;20031;-34
2023/11/13 07:16:07;;;;;;;1.83;1.30;;;17.50;69.70;;;;;;5089813;28;20039;-34
2023/11/13 07:18:34;;;;;;;1.53;1.03;;;17.50;69.70;;;;;;5083762;28;20031;-34
2023/11/13 07:21:01;;;;;;;1.73;1.17;;;17.40;69.70;;;;;;5084139;28;20029;-34
2023/11/13 07:23:28;;;;;;;1.40;1.30;;;17.40;69.70;;;;;;5082409;28;20300;-34
2023/11/13 07:25:55;;;;;;;3.17;1.25;;;17.40;69.70;;;;;;5083141;28;20036;-34
2023/11/13 07:28:22;;;;;;;2.72;1.15;;;17.40;69.60;;;;;;5074067;28;20096;-34
2023/11/13 07:30:48;;;;;;;1.45;1.23;;;17.40;69.60;;;;;;5082600;28;20036;-34
2023/11/13 07:33:14;;;;;;;1.67;1.40;;;17.40;69.70;;;;;;5081611;28;20033;-34
2023/11/13 07:35:40;;;;;;;2.25;1.30;;;17.40;69.60;;;;;;5083244;28;20025;-34
2023/11/13 07:38:10;;;;;;;1.10;1.00;;;17.40;69.60;;;;;;5076325;28;20031;-34
2023/11/13 07:40:36;;;;;;;1.30;1.20;;;17.40;69.60;;;;;;5075824;28;20031;-35
2023/11/13 07:43:03;;;;;;;1.40;1.30;;;17.40;69.80;;;;;;5082667;28;20493;-34
2023/11/13 07:45:30;;;;;;;1.35;1.25;;;17.50;70.00;;;;;;5086006;28;20036;-34
2023/11/13 07:47:56;;;;;;;1.20;1.10;;;17.50;69.90;;;;;;5087062;28;20088;-34
2023/11/13 07:50:23;;;;;;;1.55;1.20;;;17.50;69.80;;;;;;5084151;28;20036;-34
2023/11/13 07:52:50;;;;;;;;;;;17.50;69.80;;;;;;5078833;28;20025;-34
2023/11/13 07:55:18;;;;;;;1.20;1.10;;;17.50;69.90;;;;;;5080951;28;19916;-34
2023/11/13 07:57:44;;;;;;;2.33;1.70;;;17.40;69.70;;;;;;5082555;28;20025;-34
2023/11/13 08:00:11;;;;;;;1.27;1.10;;;17.40;69.80;;;;;;5082603;28;20358;-34
2023/11/13 08:02:42;;;;;;;1.20;1.10;;;17.40;69.80;;;;;;5082603;28;20036;-34
2023/11/13 08:05:11;;;;;;;1.70;1.60;;;17.40;69.80;;;;;;5082407;28;20140;-35
2023/11/13 08:07:42;;;;;;;2.47;1.27;;;17.40;69.80;;;;;;5082990;28;20048;-34
2023/11/13 08:10:12;;;;;;;1.73;1.25;;;17.40;69.70;;;;;;5081128;28;20028;-34
2023/11/13 08:12:42;;;;;;;1.50;1.10;;;17.30;69.70;;;;;;5082737;28;20103;-34
2023/11/13 08:15:12;;;;;;;1.55;1.10;;;17.30;69.70;;;;;;5081082;28;20053;-34
2023/11/13 08:17:40;;;;;;;1.35;1.20;;;17.40;70.00;;;;;;5084668;28;20075;-34
2023/11/13 08:20:08;;;;;;;1.88;1.10;;;17.50;70.00;;;;;;5079420;28;20052;-34
2023/11/13 08:22:38;;;;;;;1.00;0.90;;;17.50;69.80;;;;;;5078702;28;20029;-34
2023/11/13 08:25:06;;;;;;;2.00;1.20;;;17.50;69.80;;;;;;5079033;28;20102;-34
2023/11/13 08:27:31;;;;;;;;;;;17.40;69.80;;;;;;5082465;28;20024;-34
2023/11/13 08:29:58;;;;;;;1.20;1.10;;;17.40;69.70;;;;;;5082116;28;20063;-34
2023/11/13 08:32:24;;;;;;;1.30;1.20;;;17.40;69.80;;;;;;5082057;28;20033;-34
2023/11/13 08:34:50;;;;;;;2.35;1.10;;;17.40;69.80;;;;;;5082829;28;20036;-33
2023/11/13 08:37:18;;;;;;;1.38;1.13;;;17.30;69.80;;;;;;5081432;28;20044;-34
2023/11/13 08:39:45;;;;;;;1.38;1.10;;;17.30;69.70;;;;;;5082336;28;20027;-34
2023/11/13 08:42:11;;;;;;;2.45;1.30;;;17.30;69.70;;;;;;5082892;28;20052;-34
2023/11/13 08:44:37;;;;;;;1.27;1.00;;;17.40;70.00;;;;;;5086116;28;20041;-34
2023/11/13 08:47:05;;;;;;;1.45;1.05;;;17.50;70.00;;;;;;5092798;28;20024;-34
2023/11/13 08:49:33;;;;;;;1.40;1.30;;;17.50;69.80;;;;;;5085677;28;20038;-34
2023/11/13 08:52:00;;;;;;;1.45;1.20;;;17.40;69.80;;;;;;5079058;28;20563;-34
2023/11/13 08:54:28;;;;;;;1.50;1.30;;;17.40;69.80;;;;;;5080481;28;20041;-34
2023/11/13 08:56:55;;;;;;;1.77;1.30;;;17.40;69.80;;;;;;5078133;28;20044;-34
2023/11/13 08:59:22;;;;;;;;;;;17.40;69.80;;;;;;5080396;28;20440;-34
2023/11/13 09:01:49;;;;;;;1.35;1.20;;;17.30;69.70;;;;;;5084333;28;19912;-34
2023/11/13 09:04:15;;;;;;;1.88;1.30;;;17.30;69.70;;;;;;5082412;28;20040;-34
2023/11/13 09:06:45;;;;;;;2.47;1.45;;;17.30;69.80;;;;;;5077664;28;20025;-35
2023/11/13 09:09:12;;;;;;;1.30;1.10;;;17.30;69.70;;;;;;5080690;28;20043;-34
2023/11/13 09:11:42;;;;;;;1.35;1.25;;;17.30;69.80;;;;;;5076650;28;20035;-34
2023/11/13 09:14:11;;;;;;;2.35;1.23;;;17.40;70.00;;;;;;5079477;28;20025;-34
2023/11/13 09:16:38;;;;;;;1.10;1.00;;;17.50;70.00;;;;;;5073188;28;20059;-34
2023/11/13 09:19:05;;;;;;;1.77;1.15;;;17.50;69.70;;;;;;5076957;28;20024;-34
2023/11/13 09:21:31;;;;;;;3.58;1.42;;;17.40;69.70;;;;;;5084111;28;20058;-35
2023/11/13 09:23:57;;;;;;;2.17;1.33;;;17.40;69.70;;;;;;5085149;28;20092;-34
2023/11/13 09:26:23;;;;;;;1.35;1.25;;;17.40;69.70;;;;;;5078532;28;20033;-34
2023/11/13 09:28:50;;;;;;;1.88;1.30;;;17.30;69.70;;;;;;5085305;28;20017;-34
2023/11/13 09:31:16;;;;;;;1.13;1.02;;;17.30;69.70;;;;;;5085190;28;20802;-34
2023/11/13 09:33:44;;;;;;;1.45;1.10;;;17.30;69.70;;;;;;5085081;28;20036;-34
2023/11/13 09:36:12;;;;;;;1.40;1.30;;;17.30;69.60;;;;;;5084869;28;20634;-34
2023/11/13 09:38:38;;;;;;;1.25;1.13;;;17.30;69.80;;;;;;5084624;28;20020;-34
2023/11/13 09:41:04;;;;;;;1.70;1.38;;;17.40;69.80;;;;;;5084726;28;20020;-34
2023/11/13 09:43:34;;;;;;;2.00;1.33;;;17.40;69.70;;;;;;5084724;28;20044;-34
2023/11/13 09:46:06;;;;;;;1.80;1.20;;;17.40;69.60;;;;;;5092367;28;20043;-34
2023/11/13 09:48:35;;;;;;;2.65;1.40;;;17.40;69.60;;;;;;5083606;28;20021;-34
2023/11/13 09:51:01;;;;;;;1.88;1.13;;;17.40;69.60;;;;;;5084902;28;20032;-34
2023/11/13 09:53:28;;;;;;;1.60;1.23;;;17.30;69.60;;;;;;5087506;28;20028;-34
2023/11/13 09:55:55;;;;;;;2.25;1.40;;;17.30;69.60;;;;;;5084732;28;20021;-35
2023/11/13 09:58:21;;;;;;;1.80;1.42;;;17.30;69.60;;;;;;5084141;28;20602;-35
2023/11/13 10:00:47;;;;;;;1.30;1.20;;;17.30;69.70;;;;;;5085167;28;20706;-34
2023/11/13 10:03:16;;;;;;;2.25;1.10;;;17.30;69.80;;;;;;5083672;28;20033;-34
2023/11/13 10:05:42;;;;;;;2.70;1.40;;;17.40;69.80;;;;;;5085186;28;20067;-35
2023/11/13 10:08:08;;;;;;;1.20;1.10;;;17.40;69.60;;;;;;5082610;28;20767;-35
2023/11/13 10:10:39;;;;;;;1.23;1.10;;;17.40;69.50;;;;;;5084686;28;20089;-35
2023/11/13 10:13:07;;;;;;;2.08;1.30;;;17.40;69.60;;;;;;5084839;28;20042;-35
2023/11/13 10:15:36;;;;;;;1.63;1.30;;;17.30;69.50;;;;;;5087796;28;20043;-42
2023/11/13 10:18:08;;;;;;;1.83;1.30;;;17.30;69.70;;;;;;5088292;28;20032;-34
2023/11/13 10:20:40;;;;;;;3.30;1.40;;;17.30;69.60;;;;;;5083997;28;20500;-35
2023/11/13 10:23:06;;;;;;;1.52;1.42;;;17.30;69.60;;;;;;5080757;28;21310;-33
2023/11/13 10:25:56;;;;;;;1.73;1.30;;;17.20;69.50;;;;;;5079456;28;20039;-34
2023/11/13 10:28:35;;;;;;;2.60;1.30;;;17.20;69.60;;;;;;5083189;28;20032;-33
2023/11/13 10:31:01;;;;;;;1.40;1.20;;;17.20;69.60;;;;;;5083906;28;20039;-33
2023/11/13 10:34:00;;;;;;;2.10;1.35;;;17.30;69.70;;;;;;5094225;28;20036;-33
2023/11/13 10:36:28;;;;;;;1.38;1.27;;;17.40;69.60;;;;;;5094252;28;20052;-34
2023/11/13 10:38:56;;;;;;;3.10;1.23;;;17.40;69.50;;;;;;5094467;28;20048;-33
2023/11/13 10:41:25;;;;;;;1.58;1.42;;;17.30;69.50;;;;;;5093241;28;20089;-34
2023/11/13 10:43:52;;;;;;;1.50;1.40;;;17.30;69.50;;;;;;5094214;28;20409;-34
2023/11/13 10:46:28;;;;;;;2.35;1.45;;;17.30;69.50;;;;;;5093552;28;20100;-34
2023/11/13 10:48:56;;;;;;;2.22;1.42;;;17.30;69.50;;;;;;5094236;28;20091;-34
2023/11/13 10:51:25;;;;;;;2.03;1.33;;;17.20;69.50;;;;;;5097846;28;20054;-34
2023/11/13 10:53:53;;;;;;;1.55;1.30;;;17.30;69.80;;;;;;5077254;28;20034;-34
2023/11/13 10:56:19;;;;;;;1.80;1.48;;;17.40;69.70;;;;;;5095082;28;20039;-34
2023/11/13 10:58:47;;;;;;;2.33;1.60;;;17.40;69.60;;;;;;5100757;28;20177;-33
2023/11/13 11:01:17;;;;;;;2.47;1.27;;;17.40;69.60;;;;;;5093059;28;20038;-33
2023/11/13 11:03:45;;;;;;;2.05;1.60;;;17.30;69.60;;;;;;5077115;28;20052;-33
2023/11/13 11:06:14;;;;;;;2.17;1.40;;;17.30;69.60;;;;;;5092204;28;20064;-33
2023/11/13 11:08:40;;;;;;;1.30;1.15;;;17.30;69.60;;;;;;5096579;28;20484;-34
2023/11/13 11:11:10;;;;;;;1.70;1.52;;;17.20;69.50;;;;;;5078506;28;20037;-34
2023/11/13 11:13:39;;;;;;;1.80;1.58;;;17.30;69.70;;;;;;5091387;28;20489;-34
2023/11/13 11:16:29;;;;;;;1.90;1.50;;;17.40;69.70;;;;;;5081372;28;20100;-35
2023/11/13 11:19:02;;;;;;;1.95;1.35;;;17.40;69.60;;;;;;5079795;28;20070;-34
2023/11/13 11:21:43;;;;;;;1.75;1.35;;;17.40;70.20;;;;;;5069592;28;20031;-34
2023/11/13 11:24:20;;;;;;;1.45;1.30;;;17.30;69.40;;;;;;5082526;28;20045;-34
2023/11/13 11:27:00;;;;;;;1.67;1.38;;;17.30;69.50;;;;;;5066196;28;20025;-33
2023/11/13 11:29:36;;;;;;;1.52;1.30;;;17.30;69.50;;;;;;5082160;28;20187;-34
2023/11/13 11:32:14;;;;;;;1.40;1.30;;;17.20;69.50;;;;;;5074540;28;20047;-34
2023/11/13 11:34:42;;;;;;;;;;;17.30;69.60;;;;;;5083517;28;20035;-33
2023/11/13 11:37:15;;;;;;;2.25;1.40;;;17.40;69.70;;;;;;5076223;28;19916;-33
2023/11/13 11:39:51;;;;;;;1.55;1.20;;;17.40;69.50;;;;;;5076321;28;20024;-33
2023/11/13 11:42:19;;;;;;;2.28;1.60;;;17.40;69.50;;;;;;5082028;28;20045;-33
2023/11/13 11:45:09;;;;;;;2.30;1.70;;;17.30;69.50;;;;;;5082644;28;20036;-34
2023/11/13 11:47:38;;;;;;;1.95;1.48;;;17.30;69.50;;;;;;5081813;28;20032;-33
2023/11/13 11:50:14;;;;;;;1.90;1.30;;;17.30;69.50;;;;;;5081878;28;20034;-34
2023/11/13 11:52:42;;;;;;;1.80;1.67;;;17.20;69.50;;;;;;5081490;28;20027;-33
2023/11/13 11:55:12;;;;;;;2.00;1.70;;;17.20;69.50;;;;;;5077591;28;20029;-34
2023/11/13 11:57:45;;;;;;;2.03;1.50;;;17.20;69.50;;;;;;5083119;28;20578;-33
2023/11/13 12:00:16;;;;;;;1.50;1.15;;;17.30;69.60;;;;;;5078674;28;20024;-34
2023/11/13 12:02:43;;;;;;;1.50;1.38;;;17.40;69.60;;;;;;5082688;28;20097;-33
2023/11/13 12:05:10;;;;;;;1.48;1.38;;;17.40;69.50;;;;;;5083037;28;20063;-34
2023/11/13 12:07:36;;;;;;;2.13;1.48;;;17.40;69.30;;;;;;5079753;28;20269;-34
2023/11/13 12:10:05;;;;;;;2.35;1.48;;;17.30;69.30;;;;;;5083766;28;20024;-34
2023/11/13 12:12:32;;;;;;;1.80;1.40;;;17.30;69.30;;;;;;5074829;28;20041;-33
2023/11/13 12:14:58;;;;;;;1.60;1.47;;;17.30;69.40;;;;;;5082752;28;20171;-34
2023/11/13 12:17:24;;;;;;;1.63;1.50;;;17.20;69.30;;;;;;5082049;28;20037;-34
2023/11/13 12:19:50;;;;;;;3.35;1.80;;;17.20;69.30;;;;;;5086354;28;20120;-34
2023/11/13 12:22:16;;;;;;;2.83;1.55;;;17.20;69.40;;;;;;5086246;28;20028;-33
2023/11/13 12:24:42;;;;;;;2.00;1.80;;;17.30;69.50;;;;;;5086534;28;20036;-34
2023/11/13 12:27:08;;;;;;;2.05;1.77;;;17.40;69.40;;;;;;5083059;28;20029;-34
2023/11/13 12:29:36;;;;;;;2.20;1.67;;;17.30;69.30;;;;;;5077669;28;20035;-34
2023/11/13 12:32:03;;;;;;;2.22;1.70;;;17.30;69.30;;;;;;5086961;28;20028;-33
2023/11/13 12:34:30;;;;;;;2.50;1.98;;;17.30;69.30;;;;;;5085937;28;20601;-33
2023/11/13 12:36:56;;;;;;;1.25;1.05;;;17.30;69.40;;;;;;5081457;28;20709;-33
2023/11/13 12:39:26;;;;;;;2.25;1.65;;;17.20;69.30;;;;;;5081455;28;20030;-34
2023/11/13 12:41:52;;;;;;;3.53;1.60;;;17.20;69.30;;;;;;5086071;28;20032;-34
2023/11/13 12:44:19;;;;;;;2.30;1.50;;;17.20;69.30;;;;;;5085908;28;20032;-33
2023/11/13 12:46:50;;;;;;;3.15;1.60;;;17.30;69.40;;;;;;5086342;28;20091;-33
2023/11/13 12:49:19;;;;;;;2.03;1.60;;;17.40;69.30;;;;;;5077429;28;20494;-34
2023/11/13 12:51:49;;;;;;;2.17;1.63;;;17.40;69.20;;;;;;5086033;28;20044;-34
2023/11/13 12:54:16;;;;;;;2.08;1.73;;;17.30;69.20;;;;;;5085548;28;20032;-35